| time (UTC) | temp F | wind direction | speed MPH | gust MPH | rain 1hr in | rain 24hr in | rain mn in | humidity % | barometer mb |
| 20260507091712 | 45 | 240 | 14.0 | 26.0 | 0.00 | 0.00 | 0.00 | 81 | |
| 20260507081712 | 43 | 240 | 12.0 | 24.0 | 0.00 | 0.00 | 0.00 | 86 | |
| 20260507071712 | 45 | 230 | 14.0 | 24.0 | 0.00 | 0.00 | 0.00 | 87 | |
| 20260507061712 | 43 | 240 | 14.0 | 24.0 | 0.00 | 0.00 | 0.00 | 86 | |
| 20260507051712 | 43 | 240 | 9.0 | 0.0 | 0.00 | 0.00 | 0.00 | 86 | |
| 20260507041914 | 41 | 240 | 7.0 | 0.0 | 0.00 | 0.00 | 0.00 | 93 | |
| 20260507031712 | 43 | 230 | 9.0 | 0.0 | 0.00 | 0.00 | 0.00 | 93 | |
| 20260507021711 | 43 | 230 | 9.0 | 0.0 | 0.00 | 0.00 | 0.00 | 93 | |
| 20260507011811 | 43 | 230 | 14.0 | 26.0 | 0.00 | 0.00 | 0.00 | 93 | |
| 20260507001713 | 45 | 240 | 12.0 | 0.0 | 0.00 | 0.00 | 0.00 | 93 | |
| 20260506231712 | 46 | 230 | 12.0 | 0.0 | 0.00 | 0.00 | 0.00 | 93 | |
| 20260506221912 | 46 | 230 | 12.0 | 0.0 | 0.00 | 0.00 | 0.00 | 93 | |
| 20260506211717 | 45 | 230 | 14.0 | 0.0 | 0.00 | 0.00 | 0.00 | 93 | |
| 20260506201713 | 46 | 200 | 5.0 | 0.0 | 0.00 | 0.00 | 0.00 | 93 | |
| 20260506191728 | 45 | 200 | 5.0 | 0.0 | 0.00 | 0.00 | 0.00 | 99 | |
| 20260506181728 | 46 | 260 | 16.0 | 33.0 | 0.00 | 0.00 | 0.00 | 93 | |
| 20260506171712 | 55 | 0 | 5.0 | 0.0 | 0.00 | 0.00 | 0.00 | 71 | |
| 20260506161912 | 57 | 350 | 5.0 | 0.0 | 0.00 | 0.00 | 0.00 | 67 | |
| 20260506151712 | 59 | 340 | 7.0 | 0.0 | 0.00 | 0.00 | 0.00 | 62 | |
| 20260506141713 | 61 | 0 | 2.0 | 0.0 | 0.00 | 0.00 | 0.00 | 44 | |
| 20260506131713 | 61 | 170 | 7.0 | 0.0 | 0.00 | 0.00 | 0.00 | 44 | |
| 20260506121712 | 63 | 200 | 7.0 | 18.0 | 0.00 | 0.00 | 0.00 | 39 | |
| 20260506111713 | 64 | 170 | 7.0 | 0.0 | 0.00 | 0.00 | 0.00 | 39 | |
| 20260506101913 | 59 | 0 | 5.0 | 0.0 | 0.00 | 0.00 | 0.00 | 47 |